sensor_id;sensor_type;location;lat;lon;timestamp;pressure;altitude;pressure_sealevel;temperature;humidity
55044;BME280;54902;50.420;18.854;2023-02-04T00:00:21;100498.56;;;3.84;86.59
55044;BME280;54902;50.420;18.854;2023-02-04T00:00:52;100512.08;;;3.84;86.63
55044;BME280;54902;50.420;18.854;2023-02-04T00:01:23;100504.84;;;3.85;86.63
55044;BME280;54902;50.420;18.854;2023-02-04T00:01:54;100494.02;;;3.85;86.61
55044;BME280;54902;50.420;18.854;2023-02-04T00:02:25;100493.17;;;3.84;86.61
55044;BME280;54902;50.420;18.854;2023-02-04T00:02:56;100483.22;;;3.85;86.60
55044;BME280;54902;50.420;18.854;2023-02-04T00:03:27;100510.23;;;3.85;86.65
55044;BME280;54902;50.420;18.854;2023-02-04T00:03:58;100504.84;;;3.85;86.65
55044;BME280;54902;50.420;18.854;2023-02-04T00:04:29;100505.72;;;3.85;86.66
55044;BME280;54902;50.420;18.854;2023-02-04T00:05:00;100508.32;;;3.87;86.67
55044;BME280;54902;50.420;18.854;2023-02-04T00:05:31;100500.32;;;3.85;86.66
55044;BME280;54902;50.420;18.854;2023-02-04T00:06:02;100497.51;;;3.87;86.64
55044;BME280;54902;50.420;18.854;2023-02-04T00:06:33;100504.84;;;3.85;86.63
55044;BME280;54902;50.420;18.854;2023-02-04T00:07:04;100497.51;;;3.87;86.64
55044;BME280;54902;50.420;18.854;2023-02-04T00:07:35;100494.02;;;3.85;86.64
55044;BME280;54902;50.420;18.854;2023-02-04T00:08:06;100497.62;;;3.85;86.65
55044;BME280;54902;50.420;18.854;2023-02-04T00:08:37;100490.36;;;3.86;86.71
55044;BME280;54902;50.420;18.854;2023-02-04T00:09:08;100504.73;;;3.86;86.68
55044;BME280;54902;50.420;18.854;2023-02-04T00:09:39;100490.36;;;3.86;86.66
55044;BME280;54902;50.420;18.854;2023-02-04T00:10:10;100490.36;;;3.86;86.66
55044;BME280;54902;50.420;18.854;2023-02-04T00:10:41;100491.22;;;3.86;86.66
55044;BME280;54902;50.420;18.854;2023-02-04T00:11:11;100492.12;;;3.87;86.65
55044;BME280;54902;50.420;18.854;2023-02-04T00:11:42;100501.17;;;3.86;86.65
55044;BME280;54902;50.420;18.854;2023-02-04T00:12:15;100496.63;;;3.86;86.65
55044;BME280;54902;50.420;18.854;2023-02-04T00:12:46;100507.37;;;3.88;86.67
55044;BME280;54902;50.420;18.854;2023-02-04T00:13:16;100488.46;;;3.88;86.69
55044;BME280;54902;50.420;18.854;2023-02-04T00:13:47;100492.12;;;3.87;86.68
55044;BME280;54902;50.420;18.854;2023-02-04T00:14:18;100488.52;;;3.86;86.66
55044;BME280;54902;50.420;18.854;2023-02-04T00:14:49;100492.97;;;3.87;86.70
55044;BME280;54902;50.420;18.854;2023-02-04T00:15:20;100471.16;;;3.76;86.67
55044;BME280;54902;50.420;18.854;2023-02-04T00:15:51;100493.87;;;3.88;86.66
55044;BME280;54902;50.420;18.854;2023-02-04T00:16:22;100492.12;;;3.87;86.63
55044;BME280;54902;50.420;18.854;2023-02-04T00:16:53;100492.12;;;3.87;86.61
55044;BME280;54902;50.420;18.854;2023-02-04T00:17:24;100489.41;;;3.87;86.61
55044;BME280;54902;50.420;18.854;2023-02-04T00:17:55;100487.57;;;3.87;86.66
55044;BME280;54902;50.420;18.854;2023-02-04T00:18:27;100474.95;;;3.88;86.64
55044;BME280;54902;50.420;18.854;2023-02-04T00:18:58;100492.02;;;3.88;86.65
55044;BME280;54902;50.420;18.854;2023-02-04T00:19:29;100492.97;;;3.87;86.64
55044;BME280;54902;50.420;18.854;2023-02-04T00:20:00;100484.01;;;3.87;86.66
55044;BME280;54902;50.420;18.854;2023-02-04T00:20:32;100486.61;;;3.88;86.67
55044;BME280;54902;50.420;18.854;2023-02-04T00:21:03;100485.76;;;3.88;86.69
55044;BME280;54902;50.420;18.854;2023-02-04T00:21:34;100481.30;;;3.87;86.66
55044;BME280;54902;50.420;18.854;2023-02-04T00:22:04;100483.91;;;3.88;86.68
55044;BME280;54902;50.420;18.854;2023-02-04T00:22:37;100491.16;;;3.88;86.69
55044;BME280;54902;50.420;18.854;2023-02-04T00:23:08;100488.46;;;3.88;86.73
55044;BME280;54902;50.420;18.854;2023-02-04T00:23:39;100484.77;;;3.89;86.71
55044;BME280;54902;50.420;18.854;2023-02-04T00:24:10;100482.96;;;3.89;86.70
55044;BME280;54902;50.420;18.854;2023-02-04T00:24:41;100482.96;;;3.89;86.73
55044;BME280;54902;50.420;18.854;2023-02-04T00:25:19;100484.77;;;3.89;86.71
55044;BME280;54902;50.420;18.854;2023-02-04T00:25:50;100478.50;;;3.88;86.68
55044;BME280;54902;50.420;18.854;2023-02-04T00:26:21;100495.58;;;3.89;86.66
55044;BME280;54902;50.420;18.854;2023-02-04T00:26:51;100480.25;;;3.89;86.69
55044;BME280;54902;50.420;18.854;2023-02-04T00:27:22;100487.47;;;3.89;86.67
55044;BME280;54902;50.420;18.854;2023-02-04T00:27:53;100477.55;;;3.89;86.67
55044;BME280;54902;50.420;18.854;2023-02-04T00:28:24;100484.77;;;3.89;86.69
55044;BME280;54902;50.420;18.854;2023-02-04T00:28:55;100472.02;;;3.77;86.71
55044;BME280;54902;50.420;18.854;2023-02-04T00:29:26;100482.96;;;3.89;86.69
55044;BME280;54902;50.420;18.854;2023-02-04T00:29:57;100491.05;;;3.89;86.71
55044;BME280;54902;50.420;18.854;2023-02-04T00:30:28;100481.11;;;3.90;86.72
55044;BME280;54902;50.420;18.854;2023-02-04T00:30:59;100491.91;;;3.90;86.71
55044;BME280;54902;50.420;18.854;2023-02-04T00:31:30;100490.96;;;3.91;86.72
55044;BME280;54902;50.420;18.854;2023-02-04T00:32:01;100490.16;;;3.89;86.69
55044;BME280;54902;50.420;18.854;2023-02-04T00:32:32;100489.22;;;3.90;86.68
55044;BME280;54902;50.420;18.854;2023-02-04T00:33:03;100490.07;;;3.90;86.67
55044;BME280;54902;50.420;18.854;2023-02-04T00:33:34;100476.56;;;3.90;86.68
55044;BME280;54902;50.420;18.854;2023-02-04T00:34:05;100484.67;;;3.90;86.75
55044;BME280;54902;50.420;18.854;2023-02-04T00:34:36;100483.81;;;3.90;86.73
55044;BME280;54902;50.420;18.854;2023-02-04T00:35:07;100483.81;;;3.90;86.74
55044;BME280;54902;50.420;18.854;2023-02-04T00:35:39;100484.67;;;3.90;86.72
55044;BME280;54902;50.420;18.854;2023-02-04T00:36:09;100488.26;;;3.91;86.74
55044;BME280;54902;50.420;18.854;2023-02-04T00:36:40;100482.85;;;3.91;86.72
55044;BME280;54902;50.420;18.854;2023-02-04T00:37:11;100495.48;;;3.90;86.75
55044;BME280;54902;50.420;18.854;2023-02-04T00:37:42;100487.36;;;3.90;86.74
55044;BME280;54902;50.420;18.854;2023-02-04T00:38:13;100493.66;;;3.91;86.72
55044;BME280;54902;50.420;18.854;2023-02-04T00:38:44;100490.96;;;3.91;86.74
55044;BME280;54902;50.420;18.854;2023-02-04T00:39:15;100489.22;;;3.90;86.71
55044;BME280;54902;50.420;18.854;2023-02-04T00:39:46;100482.85;;;3.91;86.69
55044;BME280;54902;50.420;18.854;2023-02-04T00:40:17;100468.27;;;3.79;86.67
55044;BME280;54902;50.420;18.854;2023-02-04T00:40:48;100485.55;;;3.91;86.68
55044;BME280;54902;50.420;18.854;2023-02-04T00:41:19;100481.11;;;3.90;86.69
55044;BME280;54902;50.420;18.854;2023-02-04T00:41:50;100480.25;;;3.89;86.71
55044;BME280;54902;50.420;18.854;2023-02-04T00:42:20;100479.26;;;3.90;86.74
55044;BME280;54902;50.420;18.854;2023-02-04T00:42:51;100491.91;;;3.90;86.73
55044;BME280;54902;50.420;18.854;2023-02-04T00:43:22;100492.77;;;3.90;86.74
55044;BME280;54902;50.420;18.854;2023-02-04T00:43:53;100492.77;;;3.90;86.74
55044;BME280;54902;50.420;18.854;2023-02-04T00:44:24;100499.06;;;3.91;86.75
55044;BME280;54902;50.420;18.854;2023-02-04T00:44:55;100499.06;;;3.91;86.74
55044;BME280;54902;50.420;18.854;2023-02-04T00:45:26;100490.96;;;3.91;86.75
55044;BME280;54902;50.420;18.854;2023-02-04T00:45:57;100488.26;;;3.91;86.74
55044;BME280;54902;50.420;18.854;2023-02-04T00:46:28;100496.36;;;3.91;86.75
55044;BME280;54902;50.420;18.854;2023-02-04T00:46:59;100497.31;;;3.90;86.73
55044;BME280;54902;50.420;18.854;2023-02-04T00:47:30;100492.77;;;3.90;86.75
55044;BME280;54902;50.420;18.854;2023-02-04T00:48:01;100489.22;;;3.90;86.72
55044;BME280;54902;50.420;18.854;2023-02-04T00:48:31;100490.07;;;3.90;86.71
55044;BME280;54902;50.420;18.854;2023-02-04T00:49:04;100484.67;;;3.90;86.72
55044;BME280;54902;50.420;18.854;2023-02-04T00:49:40;100482.85;;;3.91;86.75
55044;BME280;54902;50.420;18.854;2023-02-04T00:50:11;100477.45;;;3.91;86.72
55044;BME280;54902;50.420;18.854;2023-02-04T00:50:42;100486.52;;;3.90;86.72
55044;BME280;54902;50.420;18.854;2023-02-04T00:51:13;100493.66;;;3.91;86.72
55044;BME280;54902;50.420;18.854;2023-02-04T00:51:43;100476.56;;;3.90;86.74
55044;BME280;54902;50.420;18.854;2023-02-04T00:52:16;100484.60;;;3.92;86.77
55044;BME280;54902;50.420;18.854;2023-02-04T00:52:46;100479.26;;;3.90;86.77
55044;BME280;54902;50.420;18.854;2023-02-04T00:53:17;100473.01;;;3.90;86.76
55044;BME280;54902;50.420;18.854;2023-02-04T00:53:48;100480.15;;;3.91;86.75
55044;BME280;54902;50.420;18.854;2023-02-04T00:54:19;100483.72;;;3.91;86.75
55044;BME280;54902;50.420;18.854;2023-02-04T00:54:50;100476.56;;;3.90;86.75
55044;BME280;54902;50.420;18.854;2023-02-04T00:55:21;100473.86;;;3.90;86.75
55044;BME280;54902;50.420;18.854;2023-02-04T00:55:52;100482.85;;;3.91;86.74
55044;BME280;54902;50.420;18.854;2023-02-04T00:56:23;100481.11;;;3.90;86.72
55044;BME280;54902;50.420;18.854;2023-02-04T00:56:54;100476.56;;;3.90;86.74
55044;BME280;54902;50.420;18.854;2023-02-04T00:57:24;100473.01;;;3.90;86.70
55044;BME280;54902;50.420;18.854;2023-02-04T00:57:55;100477.45;;;3.91;86.75
55044;BME280;54902;50.420;18.854;2023-02-04T00:58:26;100477.45;;;3.91;86.62
55044;BME280;54902;50.420;18.854;2023-02-04T00:58:57;100477.45;;;3.91;86.77
55044;BME280;54902;50.420;18.854;2023-02-04T00:59:28;100475.60;;;3.91;86.79
55044;BME280;54902;50.420;18.854;2023-02-04T00:59:59;100472.05;;;3.91;86.79
55044;BME280;54902;50.420;18.854;2023-02-04T01:00:30;100469.34;;;3.91;86.78
55044;BME280;54902;50.420;18.854;2023-02-04T01:01:01;100481.91;;;3.92;86.80
55044;BME280;54902;50.420;18.854;2023-02-04T01:01:32;100476.49;;;3.92;86.79
55044;BME280;54902;50.420;18.854;2023-02-04T01:02:03;100487.30;;;3.92;86.80
55044;BME280;54902;50.420;18.854;2023-02-04T01:02:34;100493.55;;;3.92;86.78
55044;BME280;54902;50.420;18.854;2023-02-04T01:03:05;100481.91;;;3.92;86.76
55044;BME280;54902;50.420;18.854;2023-02-04T01:03:35;100484.60;;;3.92;86.75
55044;BME280;54902;50.420;18.854;2023-02-04T01:04:07;100484.60;;;3.92;86.75
55044;BME280;54902;50.420;18.854;2023-02-04T01:04:37;100485.55;;;3.91;86.72
55044;BME280;54902;50.420;18.854;2023-02-04T01:05:08;100482.85;;;3.91;86.71
55044;BME280;54902;50.420;18.854;2023-02-04T01:05:39;100472.05;;;3.91;86.72
55044;BME280;54902;50.420;18.854;2023-02-04T01:06:10;100482.85;;;3.91;86.71
55044;BME280;54902;50.420;18.854;2023-02-04T01:06:41;100488.26;;;3.91;86.72
55044;BME280;54902;50.420;18.854;2023-02-04T01:07:12;100481.96;;;3.90;86.75
55044;BME280;54902;50.420;18.854;2023-02-04T01:07:43;100479.26;;;3.90;86.72
55044;BME280;54902;50.420;18.854;2023-02-04T01:08:14;100488.26;;;3.91;86.71
55044;BME280;54902;50.420;18.854;2023-02-04T01:08:45;100488.26;;;3.91;86.72
55044;BME280;54902;50.420;18.854;2023-02-04T01:09:16;100490.96;;;3.91;86.69
55044;BME280;54902;50.420;18.854;2023-02-04T01:09:47;100492.70;;;3.92;86.69
55044;BME280;54902;50.420;18.854;2023-02-04T01:10:18;100489.22;;;3.90;86.68
55044;BME280;54902;50.420;18.854;2023-02-04T01:10:49;100481.96;;;3.90;86.68
55044;BME280;54902;50.420;18.854;2023-02-04T01:11:20;100481.11;;;3.90;86.73
55044;BME280;54902;50.420;18.854;2023-02-04T01:11:51;100481.96;;;3.90;86.75
55044;BME280;54902;50.420;18.854;2023-02-04T01:12:22;100498.17;;;3.90;86.72
55044;BME280;54902;50.420;18.854;2023-02-04T01:12:56;100490.96;;;3.91;86.71
55044;BME280;54902;50.420;18.854;2023-02-04T01:13:27;100497.31;;;3.90;86.71
55044;BME280;54902;50.420;18.854;2023-02-04T01:13:58;100498.17;;;3.90;86.72
55044;BME280;54902;50.420;18.854;2023-02-04T01:14:29;100499.06;;;3.91;86.72
55044;BME280;54902;50.420;18.854;2023-02-04T01:15:00;100503.51;;;3.92;86.77
55044;BME280;54902;50.420;18.854;2023-02-04T01:15:31;100509.87;;;3.91;86.77
55044;BME280;54902;50.420;18.854;2023-02-04T01:16:02;100507.17;;;3.91;86.75
55044;BME280;54902;50.420;18.854;2023-02-04T01:16:33;100519.73;;;3.92;86.80
55044;BME280;54902;50.420;18.854;2023-02-04T01:17:04;100521.53;;;3.91;86.79
55044;BME280;54902;50.420;18.854;2023-02-04T01:17:35;100517.02;;;3.92;86.79
55044;BME280;54902;50.420;18.854;2023-02-04T01:18:06;100518.84;;;3.91;86.80
55044;BME280;54902;50.420;18.854;2023-02-04T01:18:36;100525.98;;;3.92;86.79
55044;BME280;54902;50.420;18.854;2023-02-04T01:19:07;100522.42;;;3.92;86.80
55044;BME280;54902;50.420;18.854;2023-02-04T01:19:38;100527.83;;;3.92;86.79
55044;BME280;54902;50.420;18.854;2023-02-04T01:20:10;100523.28;;;3.92;86.79
55044;BME280;54902;50.420;18.854;2023-02-04T01:20:41;100512.48;;;3.92;86.77
55044;BME280;54902;50.420;18.854;2023-02-04T01:21:12;100516.03;;;3.93;86.73
55044;BME280;54902;50.420;18.854;2023-02-04T01:21:43;100511.63;;;3.92;86.67
55044;BME280;54902;50.420;18.854;2023-02-04T01:22:14;100520.58;;;3.92;86.64
55044;BME280;54902;50.420;18.854;2023-02-04T01:22:45;100520.68;;;3.91;86.61
55044;BME280;54902;50.420;18.854;2023-02-04T01:23:15;100514.38;;;3.90;86.56
55044;BME280;54902;50.420;18.854;2023-02-04T01:23:46;100515.37;;;3.89;86.52
55044;BME280;54902;50.420;18.854;2023-02-04T01:24:19;100504.66;;;3.88;86.48
55044;BME280;54902;50.420;18.854;2023-02-04T01:24:50;100508.32;;;3.87;86.43
55044;BME280;54902;50.420;18.854;2023-02-04T01:25:21;100517.38;;;3.86;86.39
55044;BME280;54902;50.420;18.854;2023-02-04T01:25:52;100515.64;;;3.85;86.37
55044;BME280;54902;50.420;18.854;2023-02-04T01:26:23;100516.63;;;3.84;86.32
55044;BME280;54902;50.420;18.854;2023-02-04T01:26:54;100512.18;;;3.83;86.26
55044;BME280;54902;50.420;18.854;2023-02-04T01:27:25;100518.53;;;3.82;86.19
55044;BME280;54902;50.420;18.854;2023-02-04T01:27:56;100515.92;;;3.80;86.14
55044;BME280;54902;50.420;18.854;2023-02-04T01:28:27;100519.58;;;3.79;86.10
55044;BME280;54902;50.420;18.854;2023-02-04T01:28:58;100515.23;;;3.77;86.06
55044;BME280;54902;50.420;18.854;2023-02-04T01:29:29;100517.08;;;3.76;86.00
55044;BME280;54902;50.420;18.854;2023-02-04T01:30:00;100514.47;;;3.75;85.95
55044;BME280;54902;50.420;18.854;2023-02-04T01:30:30;100528.94;;;3.74;85.92
55044;BME280;54902;50.420;18.854;2023-02-04T01:31:01;100525.44;;;3.72;85.87
55044;BME280;54902;50.420;18.854;2023-02-04T01:31:32;100529.13;;;3.71;85.83
55044;BME280;54902;50.420;18.854;2023-02-04T01:32:03;100532.77;;;3.70;85.78
55044;BME280;54902;50.420;18.854;2023-02-04T01:32:34;100531.99;;;3.68;85.75
55044;BME280;54902;50.420;18.854;2023-02-04T01:33:05;100532.09;;;3.66;85.73
55044;BME280;54902;50.420;18.854;2023-02-04T01:33:36;100522.34;;;3.64;85.69
55044;BME280;54902;50.420;18.854;2023-02-04T01:34:07;100536.83;;;3.63;85.68
55044;BME280;54902;50.420;18.854;2023-02-04T01:34:38;100528.78;;;3.61;85.65
55044;BME280;54902;50.420;18.854;2023-02-04T01:35:09;100526.18;;;3.60;85.64
55044;BME280;54902;50.420;18.854;2023-02-04T01:35:40;100526.18;;;3.60;85.64
55044;BME280;54902;50.420;18.854;2023-02-04T01:36:12;100520.02;;;3.58;85.60
55044;BME280;54902;50.420;18.854;2023-02-04T01:36:43;100519.23;;;3.56;85.61
55044;BME280;54902;50.420;18.854;2023-02-04T01:37:14;100517.48;;;3.55;85.60
55044;BME280;54902;50.420;18.854;2023-02-04T01:37:45;100531.07;;;3.53;85.61
55044;BME280;54902;50.420;18.854;2023-02-04T01:38:16;100530.21;;;3.53;85.63
55044;BME280;54902;50.420;18.854;2023-02-04T01:38:50;100526.72;;;3.51;85.61
55044;BME280;54902;50.420;18.854;2023-02-04T01:39:21;100530.41;;;3.50;85.62
55044;BME280;54902;50.420;18.854;2023-02-04T01:39:51;100529.62;;;3.48;85.65
55044;BME280;54902;50.420;18.854;2023-02-04T01:40:23;100530.56;;;3.47;85.67
55044;BME280;54902;50.420;18.854;2023-02-04T01:40:54;100535.11;;;3.46;85.69
55044;BME280;54902;50.420;18.854;2023-02-04T01:41:26;100531.65;;;3.45;85.70
55044;BME280;54902;50.420;18.854;2023-02-04T01:41:57;100533.45;;;3.44;85.72
55044;BME280;54902;50.420;18.854;2023-02-04T01:42:30;100533.45;;;3.44;85.76
55044;BME280;54902;50.420;18.854;2023-02-04T01:43:01;100529.10;;;3.42;85.77
55044;BME280;54902;50.420;18.854;2023-02-04T01:43:33;100538.09;;;3.42;85.79
55044;BME280;54902;50.420;18.854;2023-02-04T01:44:04;100538.16;;;3.41;85.82
55044;BME280;54902;50.420;18.854;2023-02-04T01:44:35;100537.29;;;3.40;85.83
55044;BME280;54902;50.420;18.854;2023-02-04T01:45:07;100534.70;;;3.39;85.85
55044;BME280;54902;50.420;18.854;2023-02-04T01:45:38;100538.24;;;3.39;85.88
55044;BME280;54902;50.420;18.854;2023-02-04T01:46:09;100525.32;;;3.30;85.88
55044;BME280;54902;50.420;18.854;2023-02-04T01:46:41;100538.34;;;3.38;85.91
55044;BME280;54902;50.420;18.854;2023-02-04T01:47:12;100531.13;;;3.38;85.96
55044;BME280;54902;50.420;18.854;2023-02-04T01:47:44;100535.73;;;3.36;85.94
55044;BME280;54902;50.420;18.854;2023-02-04T01:48:17;100542.09;;;3.35;85.97
55044;BME280;54902;50.420;18.854;2023-02-04T01:48:50;100533.99;;;3.35;85.99
55044;BME280;54902;50.420;18.854;2023-02-04T01:49:21;100538.54;;;3.35;85.99
55044;BME280;54902;50.420;18.854;2023-02-04T01:49:54;100542.18;;;3.34;86.01
55044;BME280;54902;50.420;18.854;2023-02-04T01:50:25;100538.63;;;3.33;86.02
55044;BME280;54902;50.420;18.854;2023-02-04T01:51:05;100536.88;;;3.32;86.04
55044;BME280;54902;50.420;18.854;2023-02-04T01:51:37;100542.28;;;3.32;86.02
55044;BME280;54902;50.420;18.854;2023-02-04T01:52:09;100537.83;;;3.31;86.04
55044;BME280;54902;50.420;18.854;2023-02-04T01:52:42;100545.93;;;3.31;86.07
55044;BME280;54902;50.420;18.854;2023-02-04T01:53:17;100543.23;;;3.31;86.11
55044;BME280;54902;50.420;18.854;2023-02-04T01:53:49;100545.16;;;3.29;86.11
55044;BME280;54902;50.420;18.854;2023-02-04T01:54:20;100547.87;;;3.29;86.13
55044;BME280;54902;50.420;18.854;2023-02-04T01:54:52;100554.21;;;3.28;86.15
55044;BME280;54902;50.420;18.854;2023-02-04T01:55:26;100551.42;;;3.30;86.14
55044;BME280;54902;50.420;18.854;2023-02-04T01:55:58;100556.91;;;3.28;86.19
55044;BME280;54902;50.420;18.854;2023-02-04T01:56:29;100560.46;;;3.29;86.19
55044;BME280;54902;50.420;18.854;2023-02-04T01:57:01;100533.34;;;3.16;86.16
55044;BME280;54902;50.420;18.854;2023-02-04T01:57:34;100547.07;;;3.27;86.16
55044;BME280;54902;50.420;18.854;2023-02-04T01:58:09;100555.17;;;3.27;86.18
55044;BME280;54902;50.420;18.854;2023-02-04T01:58:42;100548.91;;;3.27;86.17
55044;BME280;54902;50.420;18.854;2023-02-04T01:59:15;100551.70;;;3.25;86.17
55044;BME280;54902;50.420;18.854;2023-02-04T01:59:48;100546.30;;;3.25;86.14
55044;BME280;54902;50.420;18.854;2023-02-04T02:00:27;100542.62;;;3.26;86.15
55044;BME280;54902;50.420;18.854;2023-02-04T02:00:59;100553.41;;;3.26;86.10
55044;BME280;54902;50.420;18.854;2023-02-04T02:02:55;100558.05;;;3.24;85.78
55044;BME280;54902;50.420;18.854;2023-02-04T02:03:26;100557.25;;;3.22;85.70
55044;BME280;54902;50.420;18.854;2023-02-04T02:03:57;100546.55;;;3.21;85.68
55044;BME280;54902;50.420;18.854;2023-02-04T02:04:32;100554.73;;;3.19;85.65
55044;BME280;54902;50.420;18.854;2023-02-04T02:05:04;100548.58;;;3.17;85.64
55044;BME280;54902;50.420;18.854;2023-02-04T02:05:45;100558.58;;;3.15;85.67
55044;BME280;54902;50.420;18.854;2023-02-04T02:06:17;100547.88;;;3.14;85.67
55044;BME280;54902;50.420;18.854;2023-02-04T02:06:52;100558.76;;;3.12;85.67
55044;BME280;54902;50.420;18.854;2023-02-04T02:07:26;100558.95;;;3.09;85.68
55044;BME280;54902;50.420;18.854;2023-02-04T02:07:59;100546.41;;;3.08;85.67
55044;BME280;54902;50.420;18.854;2023-02-04T02:08:31;100567.20;;;3.06;85.71
55044;BME280;54902;50.420;18.854;2023-02-04T02:09:03;100564.59;;;3.05;85.74
55044;BME280;54902;50.420;18.854;2023-02-04T02:09:34;100557.53;;;3.02;85.74
55044;BME280;54902;50.420;18.854;2023-02-04T02:10:09;100560.31;;;3.01;85.79
55044;BME280;54902;50.420;18.854;2023-02-04T02:10:44;100563.11;;;2.99;85.83
55044;BME280;54902;50.420;18.854;2023-02-04T02:11:15;100562.32;;;2.97;85.83
55044;BME280;54902;50.420;18.854;2023-02-04T02:11:46;100560.69;;;2.95;85.85
55044;BME280;54902;50.420;18.854;2023-02-04T02:12:17;100560.76;;;2.93;85.88
55044;BME280;54902;50.420;18.854;2023-02-04T02:12:49;100559.98;;;2.91;85.89
55044;BME280;54902;50.420;18.854;2023-02-04T02:13:20;100567.18;;;2.91;85.86
55044;BME280;54902;50.420;18.854;2023-02-04T02:13:51;100566.42;;;2.89;85.90
55044;BME280;54902;50.420;18.854;2023-02-04T02:14:23;100555.72;;;2.88;85.94
55044;BME280;54902;50.420;18.854;2023-02-04T02:14:54;100558.51;;;2.86;85.98
55044;BME280;54902;50.420;18.854;2023-02-04T02:15:25;100561.29;;;2.85;85.98
55044;BME280;54902;50.420;18.854;2023-02-04T02:15:57;100562.23;;;2.84;85.99
55044;BME280;54902;50.420;18.854;2023-02-04T02:16:28;100559.55;;;2.84;85.99
55044;BME280;54902;50.420;18.854;2023-02-04T02:16:59;100557.89;;;2.81;86.02
55044;BME280;54902;50.420;18.854;2023-02-04T02:17:30;100562.48;;;2.79;86.02
55044;BME280;54902;50.420;18.854;2023-02-04T02:18:03;100556.23;;;2.79;86.05
55044;BME280;54902;50.420;18.854;2023-02-04T02:18:33;100561.63;;;2.79;86.13
55044;BME280;54902;50.420;18.854;2023-02-04T02:19:06;100568.91;;;2.77;86.22
55044;BME280;54902;50.420;18.854;2023-02-04T02:19:38;100568.05;;;2.76;86.28
55044;BME280;54902;50.420;18.854;2023-02-04T02:20:12;100561.80;;;2.76;86.35
55044;BME280;54902;50.420;18.854;2023-02-04T02:20:44;100561.80;;;2.76;86.49
55044;BME280;54902;50.420;18.854;2023-02-04T02:21:20;100572.59;;;2.76;86.58
55044;BME280;54902;50.420;18.854;2023-02-04T02:22:01;100565.45;;;2.75;86.68
55044;BME280;54902;50.420;18.854;2023-02-04T02:23:58;100575.43;;;2.73;86.79
55044;BME280;54902;50.420;18.854;2023-02-04T02:24:33;100569.18;;;2.72;86.81
55044;BME280;54902;50.420;18.854;2023-02-04T02:25:11;100576.41;;;2.72;86.84
55044;BME280;54902;50.420;18.854;2023-02-04T02:25:43;100567.43;;;2.71;86.91
55044;BME280;54902;50.420;18.854;2023-02-04T02:26:16;100563.88;;;2.71;86.97
55044;BME280;54902;50.420;18.854;2023-02-04T02:26:47;100577.36;;;2.71;86.99
55044;BME280;54902;50.420;18.854;2023-02-04T02:27:18;100570.22;;;2.70;87.00
55044;BME280;54902;50.420;18.854;2023-02-04T02:27:50;100555.59;;;2.58;86.98
55044;BME280;54902;50.420;18.854;2023-02-04T02:28:21;100584.65;;;2.69;87.01
55044;BME280;54902;50.420;18.854;2023-02-04T02:28:53;100587.34;;;2.69;87.00
55044;BME280;54902;50.420;18.854;2023-02-04T02:29:25;100572.14;;;2.68;87.02
55044;BME280;54902;50.420;18.854;2023-02-04T02:29:56;100563.85;;;2.55;87.01
55044;BME280;54902;50.420;18.854;2023-02-04T02:30:27;100584.83;;;2.66;87.01
55044;BME280;54902;50.420;18.854;2023-02-04T02:30:59;100585.78;;;2.65;87.01
55044;BME280;54902;50.420;18.854;2023-02-04T02:31:30;100585.78;;;2.65;87.01
55044;BME280;54902;50.420;18.854;2023-02-04T02:32:01;100577.77;;;2.63;87.02
55044;BME280;54902;50.420;18.854;2023-02-04T02:32:33;100584.05;;;2.64;87.02
55044;BME280;54902;50.420;18.854;2023-02-04T02:33:04;100589.50;;;2.62;87.01
55044;BME280;54902;50.420;18.854;2023-02-04T02:33:36;100580.56;;;2.62;87.00
55044;BME280;54902;50.420;18.854;2023-02-04T02:34:07;100584.20;;;2.61;86.99
55044;BME280;54902;50.420;18.854;2023-02-04T02:34:38;100587.88;;;2.60;87.02
55044;BME280;54902;50.420;18.854;2023-02-04T02:35:09;100571.40;;;2.49;87.03
55044;BME280;54902;50.420;18.854;2023-02-04T02:35:41;100594.21;;;2.59;87.03
55044;BME280;54902;50.420;18.854;2023-02-04T02:36:17;100591.70;;;2.56;87.02
55044;BME280;54902;50.420;18.854;2023-02-04T02:36:49;100591.70;;;2.56;87.01
55044;BME280;54902;50.420;18.854;2023-02-04T02:37:20;100598.04;;;2.55;87.00
55044;BME280;54902;50.420;18.854;2023-02-04T02:37:51;100596.27;;;2.54;86.98
55044;BME280;54902;50.420;18.854;2023-02-04T02:38:22;100596.38;;;2.52;86.98
55044;BME280;54902;50.420;18.854;2023-02-04T02:38:53;100591.84;;;2.53;86.96
55044;BME280;54902;50.420;18.854;2023-02-04T02:39:25;100595.48;;;2.52;87.00
55044;BME280;54902;50.420;18.854;2023-02-04T02:39:57;100597.32;;;2.51;87.09
55044;BME280;54902;50.420;18.854;2023-02-04T02:40:28;100599.16;;;2.51;87.15
55044;BME280;54902;50.420;18.854;2023-02-04T02:40:59;100600.10;;;2.50;87.16
55044;BME280;54902;50.420;18.854;2023-02-04T02:41:30;100605.49;;;2.50;87.15
55044;BME280;54902;50.420;18.854;2023-02-04T02:42:01;100599.30;;;2.48;87.20
55044;BME280;54902;50.420;18.854;2023-02-04T02:42:33;100595.66;;;2.49;87.22
55044;BME280;54902;50.420;18.854;2023-02-04T02:43:05;100604.69;;;2.48;87.22
55044;BME280;54902;50.420;18.854;2023-02-04T02:43:37;100608.36;;;2.47;87.20
55044;BME280;54902;50.420;18.854;2023-02-04T02:44:11;100609.31;;;2.46;87.15
55044;BME280;54902;50.420;18.854;2023-02-04T02:44:43;100610.25;;;2.45;87.16
55044;BME280;54902;50.420;18.854;2023-02-04T02:45:27;100606.70;;;2.44;87.16
55044;BME280;54902;50.420;18.854;2023-02-04T02:45:59;100608.51;;;2.44;87.19
55044;BME280;54902;50.420;18.854;2023-02-04T02:46:31;100609.48;;;2.43;87.16
55044;BME280;54902;50.420;18.854;2023-02-04T02:47:02;100606.80;;;2.43;87.16
55044;BME280;54902;50.420;18.854;2023-02-04T02:47:33;100616.59;;;2.44;87.18
55044;BME280;54902;50.420;18.854;2023-02-04T02:48:04;100612.18;;;2.43;87.24